sensor_id;sensor_type;location;lat;lon;timestamp;temperature;humidity
21445;DHT22;10883;51.946;20.140;2022-12-05T00:03:53;1.10;99.90
21445;DHT22;10883;51.946;20.140;2022-12-05T00:06:21;1.10;99.90
21445;DHT22;10883;51.946;20.140;2022-12-05T00:08:48;1.10;99.90
21445;DHT22;10883;51.946;20.140;2022-12-05T00:11:16;1.10;99.90
21445;DHT22;10883;51.946;20.140;2022-12-05T00:13:43;1.10;99.90
21445;DHT22;10883;51.946;20.140;2022-12-05T00:16:11;1.10;99.90
21445;DHT22;10883;51.946;20.140;2022-12-05T00:18:37;1.10;99.90
21445;DHT22;10883;51.946;20.140;2022-12-05T00:21:04;1.10;99.90
21445;DHT22;10883;51.946;20.140;2022-12-05T00:23:30;1.10;99.90
21445;DHT22;10883;51.946;20.140;2022-12-05T00:25:56;1.10;99.90
21445;DHT22;10883;51.946;20.140;2022-12-05T00:28:21;1.10;99.90
21445;DHT22;10883;51.946;20.140;2022-12-05T00:30:47;1.10;99.90
21445;DHT22;10883;51.946;20.140;2022-12-05T00:33:13;1.10;99.90
21445;DHT22;10883;51.946;20.140;2022-12-05T00:35:39;1.00;99.90
21445;DHT22;10883;51.946;20.140;2022-12-05T00:38:04;1.10;99.90
21445;DHT22;10883;51.946;20.140;2022-12-05T00:40:30;1.10;99.90
21445;DHT22;10883;51.946;20.140;2022-12-05T00:42:56;1.10;99.90
21445;DHT22;10883;51.946;20.140;2022-12-05T00:45:22;1.00;99.90
21445;DHT22;10883;51.946;20.140;2022-12-05T00:47:47;1.00;99.90
21445;DHT22;10883;51.946;20.140;2022-12-05T00:50:13;1.10;99.90
21445;DHT22;10883;51.946;20.140;2022-12-05T00:52:39;1.00;99.90
21445;DHT22;10883;51.946;20.140;2022-12-05T00:55:05;1.00;99.90
21445;DHT22;10883;51.946;20.140;2022-12-05T00:57:31;1.00;99.90
21445;DHT22;10883;51.946;20.140;2022-12-05T00:59:57;1.10;99.90
21445;DHT22;10883;51.946;20.140;2022-12-05T01:02:23;1.10;99.90
21445;DHT22;10883;51.946;20.140;2022-12-05T01:04:49;1.10;99.90
21445;DHT22;10883;51.946;20.140;2022-12-05T01:07:14;1.10;99.90
21445;DHT22;10883;51.946;20.140;2022-12-05T01:09:40;1.10;99.90
21445;DHT22;10883;51.946;20.140;2022-12-05T01:12:06;1.10;99.90
21445;DHT22;10883;51.946;20.140;2022-12-05T01:14:32;1.00;99.90
21445;DHT22;10883;51.946;20.140;2022-12-05T01:16:58;1.00;99.90
21445;DHT22;10883;51.946;20.140;2022-12-05T01:19:26;1.00;99.90
21445;DHT22;10883;51.946;20.140;2022-12-05T01:21:53;1.10;99.90
21445;DHT22;10883;51.946;20.140;2022-12-05T01:24:21;1.10;99.90
21445;DHT22;10883;51.946;20.140;2022-12-05T01:26:47;1.10;99.90
21445;DHT22;10883;51.946;20.140;2022-12-05T01:29:16;1.00;99.90
21445;DHT22;10883;51.946;20.140;2022-12-05T01:31:42;1.00;99.90
21445;DHT22;10883;51.946;20.140;2022-12-05T01:34:11;1.00;99.90
21445;DHT22;10883;51.946;20.140;2022-12-05T01:36:37;1.00;99.90
21445;DHT22;10883;51.946;20.140;2022-12-05T01:39:04;1.00;99.90
21445;DHT22;10883;51.946;20.140;2022-12-05T01:41:35;1.00;99.90
21445;DHT22;10883;51.946;20.140;2022-12-05T01:44:03;1.00;99.90
21445;DHT22;10883;51.946;20.140;2022-12-05T01:46:32;1.00;99.90
21445;DHT22;10883;51.946;20.140;2022-12-05T01:49:07;1.00;99.90
21445;DHT22;10883;51.946;20.140;2022-12-05T01:51:38;1.00;99.90
21445;DHT22;10883;51.946;20.140;2022-12-05T01:54:04;1.00;99.90
21445;DHT22;10883;51.946;20.140;2022-12-05T01:56:31;1.00;99.90
21445;DHT22;10883;51.946;20.140;2022-12-05T01:58:59;1.00;99.90
21445;DHT22;10883;51.946;20.140;2022-12-05T02:01:25;1.00;99.90
21445;DHT22;10883;51.946;20.140;2022-12-05T02:03:53;1.00;99.90
21445;DHT22;10883;51.946;20.140;2022-12-05T02:06:19;1.00;99.90
21445;DHT22;10883;51.946;20.140;2022-12-05T02:08:46;1.00;99.90
21445;DHT22;10883;51.946;20.140;2022-12-05T02:11:12;1.00;99.90
21445;DHT22;10883;51.946;20.140;2022-12-05T02:19:42;1.00;99.90
21445;DHT22;10883;51.946;20.140;2022-12-05T02:30:57;1.00;99.90
21445;DHT22;10883;51.946;20.140;2022-12-05T02:33:34;1.00;99.90
21445;DHT22;10883;51.946;20.140;2022-12-05T02:36:14;0.90;99.90
21445;DHT22;10883;51.946;20.140;2022-12-05T02:44:12;0.90;99.90
21445;DHT22;10883;51.946;20.140;2022-12-05T02:46:40;0.90;99.90
21445;DHT22;10883;51.946;20.140;2022-12-05T02:49:19;0.90;99.90
21445;DHT22;10883;51.946;20.140;2022-12-05T02:51:51;0.90;99.90
21445;DHT22;10883;51.946;20.140;2022-12-05T02:54:23;0.80;99.90
21445;DHT22;10883;51.946;20.140;2022-12-05T02:56:51;0.90;99.90
21445;DHT22;10883;51.946;20.140;2022-12-05T02:59:18;0.80;99.90
21445;DHT22;10883;51.946;20.140;2022-12-05T03:01:45;0.80;99.90
21445;DHT22;10883;51.946;20.140;2022-12-05T03:04:15;0.80;99.90
21445;DHT22;10883;51.946;20.140;2022-12-05T03:09:34;0.80;99.90
21445;DHT22;10883;51.946;20.140;2022-12-05T03:14:59;0.90;99.90
21445;DHT22;10883;51.946;20.140;2022-12-05T03:17:34;0.90;99.90
21445;DHT22;10883;51.946;20.140;2022-12-05T03:20:12;0.90;99.90
21445;DHT22;10883;51.946;20.140;2022-12-05T03:23:14;0.80;99.90
21445;DHT22;10883;51.946;20.140;2022-12-05T03:26:10;0.90;99.90
21445;DHT22;10883;51.946;20.140;2022-12-05T03:34:06;0.90;99.90
21445;DHT22;10883;51.946;20.140;2022-12-05T03:36:41;0.90;99.90
21445;DHT22;10883;51.946;20.140;2022-12-05T03:39:17;0.90;99.90
21445;DHT22;10883;51.946;20.140;2022-12-05T03:44:49;0.90;99.90
21445;DHT22;10883;51.946;20.140;2022-12-05T03:47:17;0.90;99.90
21445;DHT22;10883;51.946;20.140;2022-12-05T03:49:50;0.90;99.90
21445;DHT22;10883;51.946;20.140;2022-12-05T03:52:27;0.90;99.90
21445;DHT22;10883;51.946;20.140;2022-12-05T03:55:01;0.80;99.90
21445;DHT22;10883;51.946;20.140;2022-12-05T03:57:40;0.80;99.90
21445;DHT22;10883;51.946;20.140;2022-12-05T04:00:15;0.90;99.90
21445;DHT22;10883;51.946;20.140;2022-12-05T04:03:11;0.80;99.90
21445;DHT22;10883;51.946;20.140;2022-12-05T04:05:54;0.90;99.90
21445;DHT22;10883;51.946;20.140;2022-12-05T04:08:34;0.90;99.90
21445;DHT22;10883;51.946;20.140;2022-12-05T04:11:05;0.90;99.90
21445;DHT22;10883;51.946;20.140;2022-12-05T04:13:40;0.90;99.90
21445;DHT22;10883;51.946;20.140;2022-12-05T04:16:11;0.90;99.90
21445;DHT22;10883;51.946;20.140;2022-12-05T04:21:54;0.80;99.90
21445;DHT22;10883;51.946;20.140;2022-12-05T04:24:27;0.80;99.90
21445;DHT22;10883;51.946;20.140;2022-12-05T04:27:28;0.80;99.90
21445;DHT22;10883;51.946;20.140;2022-12-05T04:30:11;0.80;99.90
21445;DHT22;10883;51.946;20.140;2022-12-05T04:32:45;0.80;99.90
21445;DHT22;10883;51.946;20.140;2022-12-05T04:35:28;0.80;99.90
21445;DHT22;10883;51.946;20.140;2022-12-05T04:39:01;0.80;99.90
21445;DHT22;10883;51.946;20.140;2022-12-05T04:40:58;0.80;99.90
21445;DHT22;10883;51.946;20.140;2022-12-05T04:43:28;0.90;99.90
21445;DHT22;10883;51.946;20.140;2022-12-05T04:45:56;0.90;99.90
21445;DHT22;10883;51.946;20.140;2022-12-05T04:48:24;0.90;99.90
21445;DHT22;10883;51.946;20.140;2022-12-05T04:50:53;0.90;99.90
21445;DHT22;10883;51.946;20.140;2022-12-05T04:53:22;0.80;99.90
21445;DHT22;10883;51.946;20.140;2022-12-05T04:55:50;0.90;99.90
21445;DHT22;10883;51.946;20.140;2022-12-05T04:58:20;0.80;99.90
21445;DHT22;10883;51.946;20.140;2022-12-05T05:01:19;0.80;99.90
21445;DHT22;10883;51.946;20.140;2022-12-05T05:06:20;0.90;99.90
21445;DHT22;10883;51.946;20.140;2022-12-05T05:08:55;0.90;99.90
21445;DHT22;10883;51.946;20.140;2022-12-05T05:11:23;0.90;99.90
21445;DHT22;10883;51.946;20.140;2022-12-05T05:13:50;0.90;99.90
21445;DHT22;10883;51.946;20.140;2022-12-05T05:16:22;0.90;99.90
21445;DHT22;10883;51.946;20.140;2022-12-05T05:18:49;0.90;99.90
21445;DHT22;10883;51.946;20.140;2022-12-05T05:21:24;0.90;99.90
21445;DHT22;10883;51.946;20.140;2022-12-05T05:23:50;0.90;99.90
21445;DHT22;10883;51.946;20.140;2022-12-05T05:26:16;0.90;99.90
21445;DHT22;10883;51.946;20.140;2022-12-05T05:28:43;0.90;99.90
21445;DHT22;10883;51.946;20.140;2022-12-05T05:31:09;0.90;99.90
21445;DHT22;10883;51.946;20.140;2022-12-05T05:33:35;0.80;99.90
21445;DHT22;10883;51.946;20.140;2022-12-05T05:36:06;0.90;99.90
21445;DHT22;10883;51.946;20.140;2022-12-05T05:38:36;0.90;99.90
21445;DHT22;10883;51.946;20.140;2022-12-05T05:41:03;0.90;99.90
21445;DHT22;10883;51.946;20.140;2022-12-05T05:43:29;0.90;99.90
21445;DHT22;10883;51.946;20.140;2022-12-05T05:45:55;0.90;99.90
21445;DHT22;10883;51.946;20.140;2022-12-05T05:48:21;0.90;99.90
21445;DHT22;10883;51.946;20.140;2022-12-05T05:50:47;0.90;99.90
21445;DHT22;10883;51.946;20.140;2022-12-05T05:53:12;0.90;99.90
21445;DHT22;10883;51.946;20.140;2022-12-05T05:55:39;0.90;99.90
21445;DHT22;10883;51.946;20.140;2022-12-05T05:58:06;0.90;99.90
21445;DHT22;10883;51.946;20.140;2022-12-05T06:00:31;0.90;99.90
21445;DHT22;10883;51.946;20.140;2022-12-05T06:02:57;0.90;99.90
21445;DHT22;10883;51.946;20.140;2022-12-05T06:05:23;0.90;99.90
21445;DHT22;10883;51.946;20.140;2022-12-05T06:07:51;0.90;99.90
21445;DHT22;10883;51.946;20.140;2022-12-05T06:10:17;0.90;99.90
21445;DHT22;10883;51.946;20.140;2022-12-05T06:12:42;0.90;99.90
21445;DHT22;10883;51.946;20.140;2022-12-05T06:15:09;0.90;99.90
21445;DHT22;10883;51.946;20.140;2022-12-05T06:17:35;0.90;99.90
21445;DHT22;10883;51.946;20.140;2022-12-05T06:20:00;0.90;99.90
21445;DHT22;10883;51.946;20.140;2022-12-05T06:22:26;1.00;99.90
21445;DHT22;10883;51.946;20.140;2022-12-05T06:24:52;1.00;99.90
21445;DHT22;10883;51.946;20.140;2022-12-05T06:27:18;1.00;99.90
21445;DHT22;10883;51.946;20.140;2022-12-05T06:29:43;1.00;99.90
21445;DHT22;10883;51.946;20.140;2022-12-05T06:32:09;0.90;99.90
21445;DHT22;10883;51.946;20.140;2022-12-05T06:34:35;0.90;99.90
21445;DHT22;10883;51.946;20.140;2022-12-05T06:37:01;1.00;99.90
21445;DHT22;10883;51.946;20.140;2022-12-05T06:39:27;1.00;99.90
21445;DHT22;10883;51.946;20.140;2022-12-05T06:41:53;1.00;99.90
21445;DHT22;10883;51.946;20.140;2022-12-05T06:44:18;1.00;99.90
21445;DHT22;10883;51.946;20.140;2022-12-05T06:46:47;1.00;99.90
21445;DHT22;10883;51.946;20.140;2022-12-05T06:49:12;1.00;99.90
21445;DHT22;10883;51.946;20.140;2022-12-05T06:51:38;1.00;99.90
21445;DHT22;10883;51.946;20.140;2022-12-05T06:54:04;1.00;99.90
21445;DHT22;10883;51.946;20.140;2022-12-05T06:56:30;1.00;99.90
21445;DHT22;10883;51.946;20.140;2022-12-05T06:58:56;1.00;99.90
21445;DHT22;10883;51.946;20.140;2022-12-05T07:01:22;1.00;99.90
21445;DHT22;10883;51.946;20.140;2022-12-05T07:04:23;1.00;99.90
21445;DHT22;10883;51.946;20.140;2022-12-05T07:06:50;1.10;99.90
21445;DHT22;10883;51.946;20.140;2022-12-05T07:09:22;1.10;99.90
21445;DHT22;10883;51.946;20.140;2022-12-05T07:12:08;1.00;99.90
21445;DHT22;10883;51.946;20.140;2022-12-05T07:14:34;1.10;99.90
21445;DHT22;10883;51.946;20.140;2022-12-05T07:17:00;1.10;99.90
21445;DHT22;10883;51.946;20.140;2022-12-05T07:19:25;1.10;99.90
21445;DHT22;10883;51.946;20.140;2022-12-05T07:21:51;1.20;99.90
21445;DHT22;10883;51.946;20.140;2022-12-05T07:24:17;1.10;99.90
21445;DHT22;10883;51.946;20.140;2022-12-05T07:26:43;1.10;99.90
21445;DHT22;10883;51.946;20.140;2022-12-05T07:29:09;1.20;99.90
21445;DHT22;10883;51.946;20.140;2022-12-05T07:31:35;1.20;99.90
21445;DHT22;10883;51.946;20.140;2022-12-05T07:34:01;1.20;99.90
21445;DHT22;10883;51.946;20.140;2022-12-05T07:36:27;1.30;99.90
21445;DHT22;10883;51.946;20.140;2022-12-05T07:38:55;1.30;99.90
21445;DHT22;10883;51.946;20.140;2022-12-05T07:41:27;1.30;99.90
21445;DHT22;10883;51.946;20.140;2022-12-05T07:43:55;1.30;99.90
21445;DHT22;10883;51.946;20.140;2022-12-05T07:46:21;1.30;99.90
21445;DHT22;10883;51.946;20.140;2022-12-05T07:48:48;1.30;99.90
21445;DHT22;10883;51.946;20.140;2022-12-05T07:51:14;1.30;99.90
21445;DHT22;10883;51.946;20.140;2022-12-05T07:53:40;1.30;99.90
21445;DHT22;10883;51.946;20.140;2022-12-05T07:56:10;1.30;99.90
21445;DHT22;10883;51.946;20.140;2022-12-05T07:58:36;1.30;99.90
21445;DHT22;10883;51.946;20.140;2022-12-05T08:01:14;1.30;99.90
21445;DHT22;10883;51.946;20.140;2022-12-05T08:03:41;1.40;99.90
21445;DHT22;10883;51.946;20.140;2022-12-05T08:06:41;1.40;99.90
21445;DHT22;10883;51.946;20.140;2022-12-05T08:09:00;1.40;99.90
21445;DHT22;10883;51.946;20.140;2022-12-05T08:11:30;1.50;99.90
21445;DHT22;10883;51.946;20.140;2022-12-05T08:13:59;1.40;99.90
21445;DHT22;10883;51.946;20.140;2022-12-05T08:16:27;1.40;99.90
21445;DHT22;10883;51.946;20.140;2022-12-05T08:18:58;1.40;99.90
21445;DHT22;10883;51.946;20.140;2022-12-05T08:21:24;1.40;99.90
21445;DHT22;10883;51.946;20.140;2022-12-05T08:23:51;1.40;99.90
21445;DHT22;10883;51.946;20.140;2022-12-05T08:26:20;1.50;99.90
21445;DHT22;10883;51.946;20.140;2022-12-05T08:28:50;1.50;99.90
21445;DHT22;10883;51.946;20.140;2022-12-05T08:31:18;1.50;99.90
21445;DHT22;10883;51.946;20.140;2022-12-05T08:33:44;1.50;99.90
21445;DHT22;10883;51.946;20.140;2022-12-05T08:36:13;1.50;99.90
21445;DHT22;10883;51.946;20.140;2022-12-05T08:38:40;1.60;99.90
21445;DHT22;10883;51.946;20.140;2022-12-05T08:41:08;1.60;99.90
21445;DHT22;10883;51.946;20.140;2022-12-05T08:43:34;1.70;99.90
21445;DHT22;10883;51.946;20.140;2022-12-05T08:46:01;1.80;99.90
21445;DHT22;10883;51.946;20.140;2022-12-05T08:48:28;1.70;99.90
21445;DHT22;10883;51.946;20.140;2022-12-05T08:50:54;1.70;99.90
21445;DHT22;10883;51.946;20.140;2022-12-05T08:53:20;1.80;99.90
21445;DHT22;10883;51.946;20.140;2022-12-05T08:55:46;1.80;99.90
21445;DHT22;10883;51.946;20.140;2022-12-05T08:58:12;1.80;99.90
21445;DHT22;10883;51.946;20.140;2022-12-05T09:00:39;1.90;99.90
21445;DHT22;10883;51.946;20.140;2022-12-05T09:03:05;1.90;99.90
21445;DHT22;10883;51.946;20.140;2022-12-05T09:05:31;1.90;99.90
21445;DHT22;10883;51.946;20.140;2022-12-05T09:07:57;1.80;99.90
21445;DHT22;10883;51.946;20.140;2022-12-05T09:10:25;1.70;99.90
21445;DHT22;10883;51.946;20.140;2022-12-05T09:12:51;1.80;99.90
21445;DHT22;10883;51.946;20.140;2022-12-05T09:15:17;1.70;99.90
21445;DHT22;10883;51.946;20.140;2022-12-05T09:17:43;1.80;99.90
21445;DHT22;10883;51.946;20.140;2022-12-05T09:20:10;1.90;99.90
21445;DHT22;10883;51.946;20.140;2022-12-05T09:22:41;1.90;99.90
21445;DHT22;10883;51.946;20.140;2022-12-05T09:25:07;1.80;99.90
21445;DHT22;10883;51.946;20.140;2022-12-05T09:27:33;1.80;99.90
21445;DHT22;10883;51.946;20.140;2022-12-05T09:29:59;1.80;99.90
21445;DHT22;10883;51.946;20.140;2022-12-05T09:32:25;1.90;99.90
21445;DHT22;10883;51.946;20.140;2022-12-05T09:34:51;1.90;99.90
21445;DHT22;10883;51.946;20.140;2022-12-05T09:37:17;1.80;99.90
21445;DHT22;10883;51.946;20.140;2022-12-05T09:39:43;1.80;99.90
21445;DHT22;10883;51.946;20.140;2022-12-05T09:45:22;1.80;99.90
21445;DHT22;10883;51.946;20.140;2022-12-05T09:56:01;1.90;99.90
21445;DHT22;10883;51.946;20.140;2022-12-05T10:04:13;1.90;99.90
21445;DHT22;10883;51.946;20.140;2022-12-05T10:28:46;1.90;99.90
21445;DHT22;10883;51.946;20.140;2022-12-05T10:31:17;2.30;99.90
21445;DHT22;10883;51.946;20.140;2022-12-05T10:34:21;2.40;99.90
21445;DHT22;10883;51.946;20.140;2022-12-05T10:37:15;2.40;99.90
21445;DHT22;10883;51.946;20.140;2022-12-05T10:39:42;2.50;99.90
21445;DHT22;10883;51.946;20.140;2022-12-05T10:42:20;2.40;99.90
21445;DHT22;10883;51.946;20.140;2022-12-05T10:44:54;2.40;99.90
21445;DHT22;10883;51.946;20.140;2022-12-05T10:47:21;2.50;99.90
21445;DHT22;10883;51.946;20.140;2022-12-05T10:49:47;2.40;99.90
21445;DHT22;10883;51.946;20.140;2022-12-05T10:52:14;2.50;99.90
21445;DHT22;10883;51.946;20.140;2022-12-05T10:54:48;2.70;99.90
21445;DHT22;10883;51.946;20.140;2022-12-05T10:57:24;2.70;99.90
21445;DHT22;10883;51.946;20.140;2022-12-05T10:59:51;2.60;99.90
21445;DHT22;10883;51.946;20.140;2022-12-05T11:02:35;2.60;99.90
21445;DHT22;10883;51.946;20.140;2022-12-05T11:05:03;2.60;99.90
21445;DHT22;10883;51.946;20.140;2022-12-05T11:07:32;2.40;99.90
21445;DHT22;10883;51.946;20.140;2022-12-05T11:09:59;2.40;99.90
21445;DHT22;10883;51.946;20.140;2022-12-05T11:12:36;2.50;99.90
21445;DHT22;10883;51.946;20.140;2022-12-05T11:17:40;2.40;99.90
21445;DHT22;10883;51.946;20.140;2022-12-05T11:22:52;2.30;99.90
21445;DHT22;10883;51.946;20.140;2022-12-05T11:25:28;2.30;99.90
21445;DHT22;10883;51.946;20.140;2022-12-05T11:28:40;2.30;99.90
21445;DHT22;10883;51.946;20.140;2022-12-05T11:31:02;2.40;99.90
21445;DHT22;10883;51.946;20.140;2022-12-05T11:33:34;2.40;99.90
21445;DHT22;10883;51.946;20.140;2022-12-05T11:36:17;2.40;99.90
21445;DHT22;10883;51.946;20.140;2022-12-05T11:38:44;2.40;99.90
21445;DHT22;10883;51.946;20.140;2022-12-05T11:47:31;2.30;99.90
21445;DHT22;10883;51.946;20.140;2022-12-05T11:53:03;2.30;99.90
21445;DHT22;10883;51.946;20.140;2022-12-05T11:55:49;2.30;99.90
21445;DHT22;10883;51.946;20.140;2022-12-05T12:05:12;2.20;99.90
21445;DHT22;10883;51.946;20.140;2022-12-05T12:10:42;2.30;99.90
21445;DHT22;10883;51.946;20.140;2022-12-05T12:35:27;2.40;99.90
21445;DHT22;10883;51.946;20.140;2022-12-05T12:38:15;2.40;99.90
21445;DHT22;10883;51.946;20.140;2022-12-05T12:43:47;2.60;99.90
21445;DHT22;10883;51.946;20.140;2022-12-05T12:52:19;2.60;99.90
21445;DHT22;10883;51.946;20.140;2022-12-05T12:55:10;2.60;99.90
21445;DHT22;10883;51.946;20.140;2022-12-05T13:00:48;2.50;99.90
21445;DHT22;10883;51.946;20.140;2022-12-05T13:03:26;2.60;99.90
21445;DHT22;10883;51.946;20.140;2022-12-05T13:06:11;2.60;99.90
21445;DHT22;10883;51.946;20.140;2022-12-05T13:09:02;2.50;99.90
21445;DHT22;10883;51.946;20.140;2022-12-05T13:11:34;2.50;99.90
21445;DHT22;10883;51.946;20.140;2022-12-05T13:14:03;2.50;99.90
21445;DHT22;10883;51.946;20.140;2022-12-05T13:16:39;2.50;99.90
21445;DHT22;10883;51.946;20.140;2022-12-05T13:19:30;2.50;99.90
21445;DHT22;10883;51.946;20.140;2022-12-05T13:22:04;2.50;99.90
21445;DHT22;10883;51.946;20.140;2022-12-05T13:24:30;2.40;99.90
21445;DHT22;10883;51.946;20.140;2022-12-05T13:27:04;2.50;99.90
21445;DHT22;10883;51.946;20.140;2022-12-05T13:29:40;2.50;99.90
21445;DHT22;10883;51.946;20.140;2022-12-05T13:32:24;2.50;99.90
21445;DHT22;10883;51.946;20.140;2022-12-05T13:34:51;2.50;99.90
21445;DHT22;10883;51.946;20.140;2022-12-05T13:37:21;2.50;99.90
21445;DHT22;10883;51.946;20.140;2022-12-05T13:40:22;2.50;99.90
21445;DHT22;10883;51.946;20.140;2022-12-05T13:43:07;2.50;99.90
21445;DHT22;10883;51.946;20.140;2022-12-05T13:45:34;2.40;99.90
21445;DHT22;10883;51.946;20.140;2022-12-05T13:48:18;2.40;99.90
21445;DHT22;10883;51.946;20.140;2022-12-05T13:53:24;2.30;99.90
21445;DHT22;10883;51.946;20.140;2022-12-05T13:58:48;2.30;99.90
21445;DHT22;10883;51.946;20.140;2022-12-05T14:04:00;2.40;99.90
21445;DHT22;10883;51.946;20.140;2022-12-05T14:09:26;2.30;99.90
21445;DHT22;10883;51.946;20.140;2022-12-05T14:17:24;2.30;99.90
21445;DHT22;10883;51.946;20.140;2022-12-05T14:27:55;2.30;99.90
21445;DHT22;10883;51.946;20.140;2022-12-05T14:30:32;2.40;99.90
21445;DHT22;10883;51.946;20.140;2022-12-05T14:33:01;2.40;99.90
21445;DHT22;10883;51.946;20.140;2022-12-05T14:35:40;2.40;99.90
21445;DHT22;10883;51.946;20.140;2022-12-05T14:38:20;2.40;99.90
21445;DHT22;10883;51.946;20.140;2022-12-05T14:40:47;2.40;99.90
21445;DHT22;10883;51.946;20.140;2022-12-05T14:43:26;2.30;99.90
21445;DHT22;10883;51.946;20.140;2022-12-05T14:48:28;2.30;99.90
21445;DHT22;10883;51.946;20.140;2022-12-05T14:50:56;2.30;99.90
21445;DHT22;10883;51.946;20.140;2022-12-05T15:01:21;2.40;99.90
21445;DHT22;10883;51.946;20.140;2022-12-05T15:04:14;2.30;99.90
21445;DHT22;10883;51.946;20.140;2022-12-05T15:12:02;2.30;99.90
21445;DHT22;10883;51.946;20.140;2022-12-05T15:14:32;2.30;99.90
21445;DHT22;10883;51.946;20.140;2022-12-05T15:17:02;2.30;99.90
21445;DHT22;10883;51.946;20.140;2022-12-05T15:19:42;2.30;99.90
21445;DHT22;10883;51.946;20.140;2022-12-05T15:22:12;2.40;99.90
21445;DHT22;10883;51.946;20.140;2022-12-05T15:24:39;2.40;99.90
21445;DHT22;10883;51.946;20.140;2022-12-05T15:27:08;2.40;99.90
21445;DHT22;10883;51.946;20.140;2022-12-05T15:29:37;2.30;99.90
21445;DHT22;10883;51.946;20.140;2022-12-05T15:37:13;2.40;99.90
21445;DHT22;10883;51.946;20.140;2022-12-05T15:42:28;2.40;99.90
21445;DHT22;10883;51.946;20.140;2022-12-05T15:47:45;2.50;99.90
21445;DHT22;10883;51.946;20.140;2022-12-05T15:50:13;2.50;99.90
21445;DHT22;10883;51.946;20.140;2022-12-05T15:52:47;2.50;99.90
21445;DHT22;10883;51.946;20.140;2022-12-05T15:55:35;2.50;99.90
21445;DHT22;10883;51.946;20.140;2022-12-05T16:00:46;2.50;99.90
21445;DHT22;10883;51.946;20.140;2022-12-05T16:06:04;2.50;99.90
21445;DHT22;10883;51.946;20.140;2022-12-05T16:08:31;2.50;99.90
21445;DHT22;10883;51.946;20.140;2022-12-05T16:11:09;2.50;99.90
21445;DHT22;10883;51.946;20.140;2022-12-05T16:13:35;2.50;99.90
21445;DHT22;10883;51.946;20.140;2022-12-05T16:16:04;2.50;99.90
21445;DHT22;10883;51.946;20.140;2022-12-05T16:18:31;2.50;99.90
21445;DHT22;10883;51.946;20.140;2022-12-05T16:20:57;2.50;99.90
21445;DHT22;10883;51.946;20.140;2022-12-05T16:23:29;2.50;99.90
21445;DHT22;10883;51.946;20.140;2022-12-05T16:26:19;2.50;99.90
21445;DHT22;10883;51.946;20.140;2022-12-05T16:29:01;2.50;99.90
21445;DHT22;10883;51.946;20.140;2022-12-05T16:31:31;2.50;99.90
21445;DHT22;10883;51.946;20.140;2022-12-05T16:34:04;2.50;99.90
21445;DHT22;10883;51.946;20.140;2022-12-05T16:36:32;2.50;99.90
21445;DHT22;10883;51.946;20.140;2022-12-05T16:39:03;2.60;99.90
21445;DHT22;10883;51.946;20.140;2022-12-05T16:41:37;2.60;99.90
21445;DHT22;10883;51.946;20.140;2022-12-05T16:44:08;2.60;99.90
21445;DHT22;10883;51.946;20.140;2022-12-05T16:46:51;2.60;99.90
21445;DHT22;10883;51.946;20.140;2022-12-05T16:49:35;2.60;99.90
21445;DHT22;10883;51.946;20.140;2022-12-05T16:54:33;2.60;99.90
21445;DHT22;10883;51.946;20.140;2022-12-05T16:57:00;2.60;99.90
21445;DHT22;10883;51.946;20.140;2022-12-05T16:59:36;2.60;99.90
21445;DHT22;10883;51.946;20.140;2022-12-05T17:02:06;2.60;99.90
21445;DHT22;10883;51.946;20.140;2022-12-05T17:04:32;2.60;99.90
21445;DHT22;10883;51.946;20.140;2022-12-05T17:06:58;2.60;99.90
21445;DHT22;10883;51.946;20.140;2022-12-05T17:09:24;2.60;99.90
21445;DHT22;10883;51.946;20.140;2022-12-05T17:11:51;2.60;99.90
21445;DHT22;10883;51.946;20.140;2022-12-05T17:14:19;2.60;99.90
21445;DHT22;10883;51.946;20.140;2022-12-05T17:16:45;2.70;99.90
21445;DHT22;10883;51.946;20.140;2022-12-05T17:19:11;2.60;99.90
21445;DHT22;10883;51.946;20.140;2022-12-05T17:21:38;2.60;99.90
21445;DHT22;10883;51.946;20.140;2022-12-05T17:24:08;2.70;99.90
21445;DHT22;10883;51.946;20.140;2022-12-05T17:26:37;2.70;99.90
21445;DHT22;10883;51.946;20.140;2022-12-05T17:29:03;2.70;99.90
21445;DHT22;10883;51.946;20.140;2022-12-05T17:31:29;2.70;99.90
21445;DHT22;10883;51.946;20.140;2022-12-05T17:33:55;2.60;99.90
21445;DHT22;10883;51.946;20.140;2022-12-05T17:36:21;2.60;99.90
21445;DHT22;10883;51.946;20.140;2022-12-05T17:38:48;2.60;99.90
21445;DHT22;10883;51.946;20.140;2022-12-05T17:41:19;2.60;99.90
21445;DHT22;10883;51.946;20.140;2022-12-05T17:43:46;2.60;99.90
21445;DHT22;10883;51.946;20.140;2022-12-05T17:46:21;2.70;99.90
21445;DHT22;10883;51.946;20.140;2022-12-05T17:48:49;2.70;99.90
21445;DHT22;10883;51.946;20.140;2022-12-05T17:51:17;2.70;99.90
21445;DHT22;10883;51.946;20.140;2022-12-05T17:53:44;2.70;99.90
21445;DHT22;10883;51.946;20.140;2022-12-05T17:56:11;2.70;99.90
21445;DHT22;10883;51.946;20.140;2022-12-05T17:58:40;2.70;99.90
21445;DHT22;10883;51.946;20.140;2022-12-05T18:01:17;2.70;99.90
21445;DHT22;10883;51.946;20.140;2022-12-05T18:03:45;2.70;99.90
21445;DHT22;10883;51.946;20.140;2022-12-05T18:06:12;2.70;99.90
21445;DHT22;10883;51.946;20.140;2022-12-05T18:08:39;2.70;99.90
21445;DHT22;10883;51.946;20.140;2022-12-05T18:11:07;2.70;99.90
21445;DHT22;10883;51.946;20.140;2022-12-05T18:13:34;2.70;99.90
21445;DHT22;10883;51.946;20.140;2022-12-05T18:16:01;2.80;99.90
21445;DHT22;10883;51.946;20.140;2022-12-05T18:18:28;2.80;99.90
21445;DHT22;10883;51.946;20.140;2022-12-05T18:21:09;2.80;99.90
21445;DHT22;10883;51.946;20.140;2022-12-05T18:23:37;2.80;99.90
21445;DHT22;10883;51.946;20.140;2022-12-05T18:26:05;2.80;99.90
21445;DHT22;10883;51.946;20.140;2022-12-05T18:28:34;2.80;99.90
21445;DHT22;10883;51.946;20.140;2022-12-05T18:33:30;2.80;99.90
21445;DHT22;10883;51.946;20.140;2022-12-05T18:36:12;2.80;99.90
21445;DHT22;10883;51.946;20.140;2022-12-05T18:38:40;2.80;99.90
21445;DHT22;10883;51.946;20.140;2022-12-05T18:41:08;2.80;99.90
21445;DHT22;10883;51.946;20.140;2022-12-05T18:43:35;2.80;99.90
21445;DHT22;10883;51.946;20.140;2022-12-05T18:46:03;2.80;99.90
21445;DHT22;10883;51.946;20.140;2022-12-05T18:48:30;2.90;99.90
21445;DHT22;10883;51.946;20.140;2022-12-05T18:51:15;2.90;99.90
21445;DHT22;10883;51.946;20.140;2022-12-05T18:53:42;2.90;99.90
21445;DHT22;10883;51.946;20.140;2022-12-05T18:56:18;2.90;99.90
21445;DHT22;10883;51.946;20.140;2022-12-05T18:59:07;2.90;99.90
21445;DHT22;10883;51.946;20.140;2022-12-05T19:01:37;3.00;99.90
21445;DHT22;10883;51.946;20.140;2022-12-05T19:04:05;3.00;99.90
21445;DHT22;10883;51.946;20.140;2022-12-05T19:06:33;3.00;99.90
21445;DHT22;10883;51.946;20.140;2022-12-05T19:09:04;3.00;99.90
21445;DHT22;10883;51.946;20.140;2022-12-05T19:11:31;3.00;99.90
21445;DHT22;10883;51.946;20.140;2022-12-05T19:14:01;3.00;99.90